sensor_id;sensor_type;location;lat;lon;timestamp;P1;durP1;ratioP1;P2;durP2;ratioP2
53267;SDS011;39156;51.176;6.738;2023-06-26T00:00:43;34.77;;;32.77;;
53267;SDS011;39156;51.176;6.738;2023-06-26T00:03:09;36.47;;;34.47;;
53267;SDS011;39156;51.176;6.738;2023-06-26T00:05:40;34.53;;;32.50;;
53267;SDS011;39156;51.176;6.738;2023-06-26T00:08:07;35.53;;;33.42;;
53267;SDS011;39156;51.176;6.738;2023-06-26T00:10:34;35.83;;;33.83;;
53267;SDS011;39156;51.176;6.738;2023-06-26T00:12:59;35.75;;;33.60;;
53267;SDS011;39156;51.176;6.738;2023-06-26T00:15:26;34.28;;;32.10;;
53267;SDS011;39156;51.176;6.738;2023-06-26T00:17:56;35.33;;;33.33;;
53267;SDS011;39156;51.176;6.738;2023-06-26T00:20:25;34.78;;;32.33;;
53267;SDS011;39156;51.176;6.738;2023-06-26T00:22:50;35.27;;;33.33;;
53267;SDS011;39156;51.176;6.738;2023-06-26T00:25:16;35.63;;;33.43;;
53267;SDS011;39156;51.176;6.738;2023-06-26T00:27:42;34.77;;;32.60;;
53267;SDS011;39156;51.176;6.738;2023-06-26T00:30:08;36.43;;;34.07;;
53267;SDS011;39156;51.176;6.738;2023-06-26T00:32:34;37.95;;;35.15;;
53267;SDS011;39156;51.176;6.738;2023-06-26T00:34:59;33.17;;;31.27;;
53267;SDS011;39156;51.176;6.738;2023-06-26T00:37:25;34.47;;;32.57;;
53267;SDS011;39156;51.176;6.738;2023-06-26T00:39:51;35.92;;;33.95;;
53267;SDS011;39156;51.176;6.738;2023-06-26T00:42:17;35.13;;;33.23;;
53267;SDS011;39156;51.176;6.738;2023-06-26T00:44:42;37.53;;;35.33;;
53267;SDS011;39156;51.176;6.738;2023-06-26T00:47:08;33.57;;;31.57;;
53267;SDS011;39156;51.176;6.738;2023-06-26T00:49:40;36.08;;;34.08;;
53267;SDS011;39156;51.176;6.738;2023-06-26T00:52:06;33.85;;;31.95;;
53267;SDS011;39156;51.176;6.738;2023-06-26T00:54:32;34.92;;;32.83;;
53267;SDS011;39156;51.176;6.738;2023-06-26T00:56:58;35.30;;;33.22;;
53267;SDS011;39156;51.176;6.738;2023-06-26T00:59:24;35.30;;;33.30;;
53267;SDS011;39156;51.176;6.738;2023-06-26T01:01:50;34.30;;;32.33;;
53267;SDS011;39156;51.176;6.738;2023-06-26T01:04:15;36.40;;;34.33;;
53267;SDS011;39156;51.176;6.738;2023-06-26T01:06:45;34.92;;;32.92;;
53267;SDS011;39156;51.176;6.738;2023-06-26T01:09:18;35.95;;;33.95;;
53267;SDS011;39156;51.176;6.738;2023-06-26T01:11:44;34.03;;;32.13;;
53267;SDS011;39156;51.176;6.738;2023-06-26T01:16:37;37.25;;;35.05;;
53267;SDS011;39156;51.176;6.738;2023-06-26T01:19:09;34.88;;;32.88;;
53267;SDS011;39156;51.176;6.738;2023-06-26T01:21:42;34.28;;;32.38;;
53267;SDS011;39156;51.176;6.738;2023-06-26T01:24:16;33.83;;;31.92;;
53267;SDS011;39156;51.176;6.738;2023-06-26T01:26:46;37.00;;;34.67;;
53267;SDS011;39156;51.176;6.738;2023-06-26T01:29:15;36.10;;;33.80;;
53267;SDS011;39156;51.176;6.738;2023-06-26T01:31:42;34.22;;;32.33;;
53267;SDS011;39156;51.176;6.738;2023-06-26T01:34:12;35.80;;;33.80;;
53267;SDS011;39156;51.176;6.738;2023-06-26T01:36:40;36.25;;;34.20;;
53267;SDS011;39156;51.176;6.738;2023-06-26T01:39:05;34.87;;;32.87;;
53267;SDS011;39156;51.176;6.738;2023-06-26T01:41:33;37.17;;;35.13;;
53267;SDS011;39156;51.176;6.738;2023-06-26T01:52:26;36.38;;;34.22;;
53267;SDS011;39156;51.176;6.738;2023-06-26T01:58:05;36.78;;;33.60;;
53267;SDS011;39156;51.176;6.738;2023-06-26T02:00:31;34.20;;;32.30;;
53267;SDS011;39156;51.176;6.738;2023-06-26T02:05:24;36.67;;;34.58;;
53267;SDS011;39156;51.176;6.738;2023-06-26T02:07:50;34.85;;;32.85;;
53267;SDS011;39156;51.176;6.738;2023-06-26T02:10:16;33.85;;;31.75;;
53267;SDS011;39156;51.176;6.738;2023-06-26T02:12:42;35.28;;;33.28;;
53267;SDS011;39156;51.176;6.738;2023-06-26T02:15:08;36.47;;;34.23;;
53267;SDS011;39156;51.176;6.738;2023-06-26T02:17:34;37.30;;;34.95;;
53267;SDS011;39156;51.176;6.738;2023-06-26T02:19:59;38.23;;;35.90;;
53267;SDS011;39156;51.176;6.738;2023-06-26T02:22:25;37.03;;;34.83;;
53267;SDS011;39156;51.176;6.738;2023-06-26T02:24:53;39.67;;;37.38;;
53267;SDS011;39156;51.176;6.738;2023-06-26T02:27:19;35.73;;;33.63;;
53267;SDS011;39156;51.176;6.738;2023-06-26T02:29:44;36.47;;;34.27;;
53267;SDS011;39156;51.176;6.738;2023-06-26T02:32:10;36.50;;;34.40;;
53267;SDS011;39156;51.176;6.738;2023-06-26T02:34:36;35.23;;;33.23;;
53267;SDS011;39156;51.176;6.738;2023-06-26T02:37:01;35.47;;;33.27;;
53267;SDS011;39156;51.176;6.738;2023-06-26T02:39:27;35.53;;;33.43;;
53267;SDS011;39156;51.176;6.738;2023-06-26T02:41:53;35.67;;;33.67;;
53267;SDS011;39156;51.176;6.738;2023-06-26T02:44:19;36.40;;;34.40;;
53267;SDS011;39156;51.176;6.738;2023-06-26T02:46:46;37.63;;;35.42;;
53267;SDS011;39156;51.176;6.738;2023-06-26T02:49:11;38.23;;;36.03;;
53267;SDS011;39156;51.176;6.738;2023-06-26T02:51:37;35.03;;;33.07;;
53267;SDS011;39156;51.176;6.738;2023-06-26T02:54:03;36.42;;;34.38;;
53267;SDS011;39156;51.176;6.738;2023-06-26T02:56:29;36.43;;;34.37;;
53267;SDS011;39156;51.176;6.738;2023-06-26T02:58:57;36.67;;;34.20;;
53267;SDS011;39156;51.176;6.738;2023-06-26T03:01:24;36.50;;;34.33;;
53267;SDS011;39156;51.176;6.738;2023-06-26T03:03:49;36.15;;;34.05;;
53267;SDS011;39156;51.176;6.738;2023-06-26T03:06:16;36.05;;;33.85;;
53267;SDS011;39156;51.176;6.738;2023-06-26T03:08:42;37.50;;;35.40;;
53267;SDS011;39156;51.176;6.738;2023-06-26T03:11:08;36.60;;;34.40;;
53267;SDS011;39156;51.176;6.738;2023-06-26T03:13:34;35.78;;;33.67;;
53267;SDS011;39156;51.176;6.738;2023-06-26T03:16:01;35.28;;;33.17;;
53267;SDS011;39156;51.176;6.738;2023-06-26T03:18:27;36.83;;;34.55;;
53267;SDS011;39156;51.176;6.738;2023-06-26T03:20:54;36.93;;;34.83;;
53267;SDS011;39156;51.176;6.738;2023-06-26T03:23:21;36.42;;;34.22;;
53267;SDS011;39156;51.176;6.738;2023-06-26T03:25:48;36.60;;;34.33;;
53267;SDS011;39156;51.176;6.738;2023-06-26T03:28:14;37.25;;;34.80;;
53267;SDS011;39156;51.176;6.738;2023-06-26T03:30:40;34.55;;;32.38;;
53267;SDS011;39156;51.176;6.738;2023-06-26T03:33:06;36.33;;;34.23;;
53267;SDS011;39156;51.176;6.738;2023-06-26T03:35:32;36.05;;;33.75;;
53267;SDS011;39156;51.176;6.738;2023-06-26T03:37:58;34.87;;;32.87;;
53267;SDS011;39156;51.176;6.738;2023-06-26T03:40:24;36.45;;;34.10;;
53267;SDS011;39156;51.176;6.738;2023-06-26T03:42:49;37.23;;;35.03;;
53267;SDS011;39156;51.176;6.738;2023-06-26T03:45:15;35.40;;;33.30;;
53267;SDS011;39156;51.176;6.738;2023-06-26T03:47:41;37.20;;;34.83;;
53267;SDS011;39156;51.176;6.738;2023-06-26T03:50:06;38.70;;;35.93;;
53267;SDS011;39156;51.176;6.738;2023-06-26T03:52:33;35.65;;;33.50;;
53267;SDS011;39156;51.176;6.738;2023-06-26T03:54:58;38.37;;;35.87;;
53267;SDS011;39156;51.176;6.738;2023-06-26T03:57:25;36.60;;;34.40;;
53267;SDS011;39156;51.176;6.738;2023-06-26T03:59:51;35.92;;;33.83;;
53267;SDS011;39156;51.176;6.738;2023-06-26T04:02:17;37.17;;;35.08;;
53267;SDS011;39156;51.176;6.738;2023-06-26T04:04:43;35.88;;;33.67;;
53267;SDS011;39156;51.176;6.738;2023-06-26T04:07:09;36.30;;;33.83;;
53267;SDS011;39156;51.176;6.738;2023-06-26T04:09:35;34.80;;;32.70;;
53267;SDS011;39156;51.176;6.738;2023-06-26T04:12:01;35.17;;;32.80;;
53267;SDS011;39156;51.176;6.738;2023-06-26T04:14:27;35.70;;;33.40;;
53267;SDS011;39156;51.176;6.738;2023-06-26T04:16:52;35.17;;;33.27;;
53267;SDS011;39156;51.176;6.738;2023-06-26T04:19:18;33.93;;;32.03;;
53267;SDS011;39156;51.176;6.738;2023-06-26T04:21:44;36.00;;;33.88;;
53267;SDS011;39156;51.176;6.738;2023-06-26T04:24:10;34.53;;;32.30;;
53267;SDS011;39156;51.176;6.738;2023-06-26T04:26:36;33.58;;;31.58;;
53267;SDS011;39156;51.176;6.738;2023-06-26T04:31:28;33.15;;;31.25;;
53267;SDS011;39156;51.176;6.738;2023-06-26T04:33:54;32.15;;;30.35;;
53267;SDS011;39156;51.176;6.738;2023-06-26T04:36:20;32.50;;;29.55;;
53267;SDS011;39156;51.176;6.738;2023-06-26T04:38:46;32.08;;;30.10;;
53267;SDS011;39156;51.176;6.738;2023-06-26T04:41:13;32.33;;;30.33;;
53267;SDS011;39156;51.176;6.738;2023-06-26T04:43:39;34.08;;;32.03;;
53267;SDS011;39156;51.176;6.738;2023-06-26T04:46:05;35.33;;;33.00;;
53267;SDS011;39156;51.176;6.738;2023-06-26T04:48:31;32.45;;;30.65;;
53267;SDS011;39156;51.176;6.738;2023-06-26T04:50:57;31.48;;;29.73;;
53267;SDS011;39156;51.176;6.738;2023-06-26T04:53:24;31.83;;;30.02;;
53267;SDS011;39156;51.176;6.738;2023-06-26T04:55:52;33.22;;;31.13;;
53267;SDS011;39156;51.176;6.738;2023-06-26T04:58:19;32.85;;;30.95;;
53267;SDS011;39156;51.176;6.738;2023-06-26T05:00:45;32.28;;;30.42;;
53267;SDS011;39156;51.176;6.738;2023-06-26T05:03:12;31.65;;;29.70;;
53267;SDS011;39156;51.176;6.738;2023-06-26T05:05:39;31.30;;;29.60;;
53267;SDS011;39156;51.176;6.738;2023-06-26T05:11:03;32.60;;;30.60;;
53267;SDS011;39156;51.176;6.738;2023-06-26T05:13:28;32.63;;;30.73;;
53267;SDS011;39156;51.176;6.738;2023-06-26T05:15:54;35.40;;;33.40;;
53267;SDS011;39156;51.176;6.738;2023-06-26T05:18:20;34.45;;;32.45;;
53267;SDS011;39156;51.176;6.738;2023-06-26T05:20:45;34.33;;;32.33;;
53267;SDS011;39156;51.176;6.738;2023-06-26T05:25:37;34.13;;;32.22;;
53267;SDS011;39156;51.176;6.738;2023-06-26T05:30:30;34.22;;;32.33;;
53267;SDS011;39156;51.176;6.738;2023-06-26T05:32:59;34.35;;;32.15;;
53267;SDS011;39156;51.176;6.738;2023-06-26T05:35:25;33.03;;;31.23;;
53267;SDS011;39156;51.176;6.738;2023-06-26T05:37:57;32.75;;;30.95;;
53267;SDS011;39156;51.176;6.738;2023-06-26T05:40:24;33.15;;;31.05;;
53267;SDS011;39156;51.176;6.738;2023-06-26T05:42:50;32.92;;;31.13;;
53267;SDS011;39156;51.176;6.738;2023-06-26T05:45:16;32.33;;;30.52;;
53267;SDS011;39156;51.176;6.738;2023-06-26T05:47:42;32.28;;;30.27;;
53267;SDS011;39156;51.176;6.738;2023-06-26T05:50:08;33.83;;;31.58;;
53267;SDS011;39156;51.176;6.738;2023-06-26T05:52:35;33.40;;;31.48;;
53267;SDS011;39156;51.176;6.738;2023-06-26T05:57:28;33.20;;;31.10;;
53267;SDS011;39156;51.176;6.738;2023-06-26T05:59:55;32.28;;;30.25;;
53267;SDS011;39156;51.176;6.738;2023-06-26T06:02:30;32.05;;;30.15;;
53267;SDS011;39156;51.176;6.738;2023-06-26T06:04:56;31.80;;;29.98;;
53267;SDS011;39156;51.176;6.738;2023-06-26T06:07:21;31.65;;;29.85;;
53267;SDS011;39156;51.176;6.738;2023-06-26T06:09:47;31.73;;;29.83;;
53267;SDS011;39156;51.176;6.738;2023-06-26T06:12:13;30.80;;;29.00;;
53267;SDS011;39156;51.176;6.738;2023-06-26T06:14:38;32.03;;;30.13;;
53267;SDS011;39156;51.176;6.738;2023-06-26T06:17:04;31.42;;;29.52;;
53267;SDS011;39156;51.176;6.738;2023-06-26T06:19:30;34.17;;;31.80;;
53267;SDS011;39156;51.176;6.738;2023-06-26T06:21:55;30.58;;;28.77;;
53267;SDS011;39156;51.176;6.738;2023-06-26T06:24:21;32.22;;;30.15;;
53267;SDS011;39156;51.176;6.738;2023-06-26T06:26:47;31.80;;;29.40;;
53267;SDS011;39156;51.176;6.738;2023-06-26T06:29:12;31.77;;;29.88;;
53267;SDS011;39156;51.176;6.738;2023-06-26T06:31:38;32.35;;;30.35;;
53267;SDS011;39156;51.176;6.738;2023-06-26T06:34:04;31.27;;;29.40;;
53267;SDS011;39156;51.176;6.738;2023-06-26T06:36:29;31.55;;;29.45;;
53267;SDS011;39156;51.176;6.738;2023-06-26T06:38:56;29.67;;;27.98;;
53267;SDS011;39156;51.176;6.738;2023-06-26T06:43:47;29.02;;;27.25;;
53267;SDS011;39156;51.176;6.738;2023-06-26T06:46:12;28.23;;;26.42;;
53267;SDS011;39156;51.176;6.738;2023-06-26T06:48:38;28.92;;;27.23;;
53267;SDS011;39156;51.176;6.738;2023-06-26T06:51:04;28.13;;;26.58;;
53267;SDS011;39156;51.176;6.738;2023-06-26T06:53:30;28.17;;;26.48;;
53267;SDS011;39156;51.176;6.738;2023-06-26T06:55:56;27.90;;;26.20;;
53267;SDS011;39156;51.176;6.738;2023-06-26T06:58:22;27.88;;;26.20;;
53267;SDS011;39156;51.176;6.738;2023-06-26T07:00:48;27.88;;;26.08;;
53267;SDS011;39156;51.176;6.738;2023-06-26T07:03:16;28.02;;;26.42;;
53267;SDS011;39156;51.176;6.738;2023-06-26T07:05:41;28.88;;;27.02;;
53267;SDS011;39156;51.176;6.738;2023-06-26T07:08:07;29.35;;;27.65;;
53267;SDS011;39156;51.176;6.738;2023-06-26T07:10:33;30.25;;;27.80;;
53267;SDS011;39156;51.176;6.738;2023-06-26T07:15:25;30.08;;;28.35;;
53267;SDS011;39156;51.176;6.738;2023-06-26T07:20:16;29.67;;;27.88;;
53267;SDS011;39156;51.176;6.738;2023-06-26T07:22:42;29.75;;;27.98;;
53267;SDS011;39156;51.176;6.738;2023-06-26T07:25:09;29.55;;;27.58;;
53267;SDS011;39156;51.176;6.738;2023-06-26T07:27:36;27.50;;;25.95;;
53267;SDS011;39156;51.176;6.738;2023-06-26T07:30:03;28.17;;;26.38;;
53267;SDS011;39156;51.176;6.738;2023-06-26T07:32:29;27.80;;;26.10;;
53267;SDS011;39156;51.176;6.738;2023-06-26T07:34:55;28.30;;;26.38;;
53267;SDS011;39156;51.176;6.738;2023-06-26T07:37:20;27.27;;;25.52;;
53267;SDS011;39156;51.176;6.738;2023-06-26T07:39:47;27.40;;;25.45;;
53267;SDS011;39156;51.176;6.738;2023-06-26T07:42:14;27.98;;;26.23;;
53267;SDS011;39156;51.176;6.738;2023-06-26T07:44:41;27.50;;;25.80;;
53267;SDS011;39156;51.176;6.738;2023-06-26T07:47:08;26.63;;;24.85;;
53267;SDS011;39156;51.176;6.738;2023-06-26T07:49:34;26.67;;;25.17;;
53267;SDS011;39156;51.176;6.738;2023-06-26T07:52:00;26.13;;;24.52;;
53267;SDS011;39156;51.176;6.738;2023-06-26T07:54:26;25.58;;;24.08;;
53267;SDS011;39156;51.176;6.738;2023-06-26T07:56:59;26.90;;;25.20;;
53267;SDS011;39156;51.176;6.738;2023-06-26T07:59:27;25.75;;;24.15;;
53267;SDS011;39156;51.176;6.738;2023-06-26T08:01:55;27.45;;;25.50;;
53267;SDS011;39156;51.176;6.738;2023-06-26T08:04:23;27.38;;;25.70;;
53267;SDS011;39156;51.176;6.738;2023-06-26T08:06:51;30.00;;;27.73;;
53267;SDS011;39156;51.176;6.738;2023-06-26T08:09:21;28.35;;;26.33;;
53267;SDS011;39156;51.176;6.738;2023-06-26T08:11:49;28.25;;;26.35;;
53267;SDS011;39156;51.176;6.738;2023-06-26T08:14:15;27.50;;;25.70;;
53267;SDS011;39156;51.176;6.738;2023-06-26T08:16:42;28.20;;;26.50;;
53267;SDS011;39156;51.176;6.738;2023-06-26T08:19:14;28.92;;;27.15;;
53267;SDS011;39156;51.176;6.738;2023-06-26T08:21:41;29.63;;;27.77;;
53267;SDS011;39156;51.176;6.738;2023-06-26T08:24:08;29.95;;;28.17;;
53267;SDS011;39156;51.176;6.738;2023-06-26T08:26:35;30.90;;;28.85;;
53267;SDS011;39156;51.176;6.738;2023-06-26T08:29:02;31.15;;;29.08;;
53267;SDS011;39156;51.176;6.738;2023-06-26T08:31:33;30.73;;;28.67;;
53267;SDS011;39156;51.176;6.738;2023-06-26T08:34:00;29.83;;;27.90;;
53267;SDS011;39156;51.176;6.738;2023-06-26T08:36:27;31.90;;;29.98;;
53267;SDS011;39156;51.176;6.738;2023-06-26T08:41:18;31.05;;;29.00;;
53267;SDS011;39156;51.176;6.738;2023-06-26T08:43:44;30.00;;;28.20;;
53267;SDS011;39156;51.176;6.738;2023-06-26T08:46:10;29.02;;;27.23;;
53267;SDS011;39156;51.176;6.738;2023-06-26T08:48:35;30.20;;;28.38;;
53267;SDS011;39156;51.176;6.738;2023-06-26T08:51:08;30.52;;;28.65;;
53267;SDS011;39156;51.176;6.738;2023-06-26T08:53:42;30.30;;;28.27;;
53267;SDS011;39156;51.176;6.738;2023-06-26T08:56:16;30.70;;;28.80;;
53267;SDS011;39156;51.176;6.738;2023-06-26T08:58:45;31.23;;;29.17;;
53267;SDS011;39156;51.176;6.738;2023-06-26T09:03:37;30.23;;;28.42;;
53267;SDS011;39156;51.176;6.738;2023-06-26T09:06:03;30.38;;;28.20;;
53267;SDS011;39156;51.176;6.738;2023-06-26T09:08:29;30.20;;;28.25;;
53267;SDS011;39156;51.176;6.738;2023-06-26T09:10:54;30.27;;;28.38;;
53267;SDS011;39156;51.176;6.738;2023-06-26T09:13:20;29.63;;;27.63;;
53267;SDS011;39156;51.176;6.738;2023-06-26T09:15:46;29.98;;;28.13;;
53267;SDS011;39156;51.176;6.738;2023-06-26T09:18:12;29.05;;;27.33;;
53267;SDS011;39156;51.176;6.738;2023-06-26T09:20:42;30.05;;;28.20;;
53267;SDS011;39156;51.176;6.738;2023-06-26T09:23:08;29.45;;;27.55;;
53267;SDS011;39156;51.176;6.738;2023-06-26T09:25:37;29.50;;;27.50;;
53267;SDS011;39156;51.176;6.738;2023-06-26T09:28:05;30.10;;;28.15;;
53267;SDS011;39156;51.176;6.738;2023-06-26T09:30:33;29.88;;;27.90;;
53267;SDS011;39156;51.176;6.738;2023-06-26T09:33:12;30.10;;;28.20;;
53267;SDS011;39156;51.176;6.738;2023-06-26T09:35:46;29.40;;;27.70;;
53267;SDS011;39156;51.176;6.738;2023-06-26T09:38:13;30.02;;;28.17;;
53267;SDS011;39156;51.176;6.738;2023-06-26T09:40:39;29.35;;;27.55;;
53267;SDS011;39156;51.176;6.738;2023-06-26T09:43:06;30.15;;;28.30;;
53267;SDS011;39156;51.176;6.738;2023-06-26T09:45:39;30.15;;;28.08;;
53267;SDS011;39156;51.176;6.738;2023-06-26T09:48:05;30.15;;;28.25;;
53267;SDS011;39156;51.176;6.738;2023-06-26T09:50:36;30.27;;;28.52;;
53267;SDS011;39156;51.176;6.738;2023-06-26T09:53:07;28.80;;;27.00;;
53267;SDS011;39156;51.176;6.738;2023-06-26T09:55:38;29.48;;;27.48;;
53267;SDS011;39156;51.176;6.738;2023-06-26T09:58:09;29.33;;;27.52;;
53267;SDS011;39156;51.176;6.738;2023-06-26T10:00:39;27.73;;;25.88;;
53267;SDS011;39156;51.176;6.738;2023-06-26T10:03:09;28.27;;;26.58;;
53267;SDS011;39156;51.176;6.738;2023-06-26T10:05:37;27.90;;;26.23;;
53267;SDS011;39156;51.176;6.738;2023-06-26T10:08:05;28.05;;;26.48;;
53267;SDS011;39156;51.176;6.738;2023-06-26T10:10:32;29.05;;;27.17;;
53267;SDS011;39156;51.176;6.738;2023-06-26T10:13:01;29.00;;;27.30;;
53267;SDS011;39156;51.176;6.738;2023-06-26T10:15:36;29.58;;;27.60;;
53267;SDS011;39156;51.176;6.738;2023-06-26T10:18:04;29.70;;;28.00;;
53267;SDS011;39156;51.176;6.738;2023-06-26T10:20:30;30.15;;;28.35;;
53267;SDS011;39156;51.176;6.738;2023-06-26T10:22:57;30.83;;;28.80;;
53267;SDS011;39156;51.176;6.738;2023-06-26T10:25:26;29.33;;;27.38;;
53267;SDS011;39156;51.176;6.738;2023-06-26T10:27:56;29.60;;;27.80;;
53267;SDS011;39156;51.176;6.738;2023-06-26T10:30:28;29.27;;;27.50;;
53267;SDS011;39156;51.176;6.738;2023-06-26T10:32:58;30.30;;;28.55;;
53267;SDS011;39156;51.176;6.738;2023-06-26T10:35:25;29.10;;;27.33;;
53267;SDS011;39156;51.176;6.738;2023-06-26T10:37:52;29.15;;;27.35;;
53267;SDS011;39156;51.176;6.738;2023-06-26T10:40:28;30.45;;;28.45;;
53267;SDS011;39156;51.176;6.738;2023-06-26T10:43:10;30.60;;;28.65;;
53267;SDS011;39156;51.176;6.738;2023-06-26T10:45:44;29.48;;;27.77;;
53267;SDS011;39156;51.176;6.738;2023-06-26T10:48:17;29.75;;;27.95;;
53267;SDS011;39156;51.176;6.738;2023-06-26T10:50:42;30.27;;;28.02;;
53267;SDS011;39156;51.176;6.738;2023-06-26T10:55:56;28.92;;;27.23;;
53267;SDS011;39156;51.176;6.738;2023-06-26T10:58:31;29.55;;;27.85;;
53267;SDS011;39156;51.176;6.738;2023-06-26T11:03:39;30.40;;;28.70;;
53267;SDS011;39156;51.176;6.738;2023-06-26T11:06:10;28.65;;;27.05;;
53267;SDS011;39156;51.176;6.738;2023-06-26T11:08:45;29.58;;;27.98;;
53267;SDS011;39156;51.176;6.738;2023-06-26T11:11:18;29.60;;;27.80;;
53267;SDS011;39156;51.176;6.738;2023-06-26T11:13:46;30.13;;;28.42;;
53267;SDS011;39156;51.176;6.738;2023-06-26T11:16:12;30.33;;;28.73;;
53267;SDS011;39156;51.176;6.738;2023-06-26T11:18:40;29.27;;;27.77;;
53267;SDS011;39156;51.176;6.738;2023-06-26T11:21:10;28.67;;;27.08;;
53267;SDS011;39156;51.176;6.738;2023-06-26T11:23:40;29.00;;;27.48;;
53267;SDS011;39156;51.176;6.738;2023-06-26T11:26:16;29.10;;;27.60;;
53267;SDS011;39156;51.176;6.738;2023-06-26T11:31:28;30.95;;;28.88;;
53267;SDS011;39156;51.176;6.738;2023-06-26T11:33:56;28.67;;;27.08;;
53267;SDS011;39156;51.176;6.738;2023-06-26T11:36:24;30.77;;;28.73;;
53267;SDS011;39156;51.176;6.738;2023-06-26T11:38:57;30.67;;;29.08;;
53267;SDS011;39156;51.176;6.738;2023-06-26T11:41:26;29.40;;;27.70;;
53267;SDS011;39156;51.176;6.738;2023-06-26T11:43:54;30.10;;;28.17;;
53267;SDS011;39156;51.176;6.738;2023-06-26T11:48:47;28.17;;;26.52;;
53267;SDS011;39156;51.176;6.738;2023-06-26T11:51:14;28.45;;;26.95;;
53267;SDS011;39156;51.176;6.738;2023-06-26T11:53:40;30.10;;;28.40;;
53267;SDS011;39156;51.176;6.738;2023-06-26T11:56:11;30.40;;;28.60;;
53267;SDS011;39156;51.176;6.738;2023-06-26T11:58:54;29.60;;;28.00;;
53267;SDS011;39156;51.176;6.738;2023-06-26T12:01:33;31.25;;;29.50;;
53267;SDS011;39156;51.176;6.738;2023-06-26T12:04:05;30.63;;;28.88;;
53267;SDS011;39156;51.176;6.738;2023-06-26T12:06:35;30.67;;;28.98;;
53267;SDS011;39156;51.176;6.738;2023-06-26T12:09:04;30.48;;;28.67;;
53267;SDS011;39156;51.176;6.738;2023-06-26T12:11:35;30.45;;;28.42;;
53267;SDS011;39156;51.176;6.738;2023-06-26T12:14:09;29.67;;;28.00;;
53267;SDS011;39156;51.176;6.738;2023-06-26T12:16:36;29.77;;;27.95;;
53267;SDS011;39156;51.176;6.738;2023-06-26T12:19:06;30.40;;;28.38;;
53267;SDS011;39156;51.176;6.738;2023-06-26T12:24:09;28.98;;;27.25;;
53267;SDS011;39156;51.176;6.738;2023-06-26T12:26:44;29.65;;;28.05;;
53267;SDS011;39156;51.176;6.738;2023-06-26T12:29:13;30.30;;;28.20;;
53267;SDS011;39156;51.176;6.738;2023-06-26T12:31:42;28.80;;;27.10;;
53267;SDS011;39156;51.176;6.738;2023-06-26T12:34:10;28.90;;;27.30;;
53267;SDS011;39156;51.176;6.738;2023-06-26T12:36:42;30.20;;;28.38;;
53267;SDS011;39156;51.176;6.738;2023-06-26T12:39:15;28.92;;;27.42;;
53267;SDS011;39156;51.176;6.738;2023-06-26T12:41:44;29.52;;;27.73;;
53267;SDS011;39156;51.176;6.738;2023-06-26T12:44:16;29.38;;;27.63;;
53267;SDS011;39156;51.176;6.738;2023-06-26T12:49:14;29.33;;;27.80;;
53267;SDS011;39156;51.176;6.738;2023-06-26T12:51:40;29.27;;;27.50;;
53267;SDS011;39156;51.176;6.738;2023-06-26T12:54:06;28.70;;;27.10;;
53267;SDS011;39156;51.176;6.738;2023-06-26T12:56:31;29.23;;;27.63;;
53267;SDS011;39156;51.176;6.738;2023-06-26T12:58:57;29.35;;;27.63;;
53267;SDS011;39156;51.176;6.738;2023-06-26T13:01:23;28.98;;;27.48;;
53267;SDS011;39156;51.176;6.738;2023-06-26T13:03:59;28.02;;;26.48;;
53267;SDS011;39156;51.176;6.738;2023-06-26T13:06:24;29.90;;;28.20;;
53267;SDS011;39156;51.176;6.738;2023-06-26T13:08:50;29.27;;;27.65;;
53267;SDS011;39156;51.176;6.738;2023-06-26T13:11:16;29.40;;;27.58;;
53267;SDS011;39156;51.176;6.738;2023-06-26T13:16:07;30.45;;;28.65;;
53267;SDS011;39156;51.176;6.738;2023-06-26T13:18:33;28.55;;;27.05;;
53267;SDS011;39156;51.176;6.738;2023-06-26T13:20:59;29.90;;;28.20;;
53267;SDS011;39156;51.176;6.738;2023-06-26T13:23:25;29.92;;;28.20;;
53267;SDS011;39156;51.176;6.738;2023-06-26T13:25:51;29.92;;;28.08;;
53267;SDS011;39156;51.176;6.738;2023-06-26T13:28:17;29.42;;;27.70;;
53267;SDS011;39156;51.176;6.738;2023-06-26T13:30:43;28.80;;;27.30;;
53267;SDS011;39156;51.176;6.738;2023-06-26T13:33:09;28.80;;;27.30;;
53267;SDS011;39156;51.176;6.738;2023-06-26T13:35:35;28.45;;;26.85;;
53267;SDS011;39156;51.176;6.738;2023-06-26T13:38:01;29.40;;;27.88;;
53267;SDS011;39156;51.176;6.738;2023-06-26T13:40:27;29.77;;;28.08;;
53267;SDS011;39156;51.176;6.738;2023-06-26T13:42:53;28.65;;;27.13;;
53267;SDS011;39156;51.176;6.738;2023-06-26T13:45:19;29.88;;;28.17;;
53267;SDS011;39156;51.176;6.738;2023-06-26T13:47:44;30.75;;;29.08;;
53267;SDS011;39156;51.176;6.738;2023-06-26T13:50:10;29.50;;;27.65;;
53267;SDS011;39156;51.176;6.738;2023-06-26T13:52:36;29.58;;;27.95;;
53267;SDS011;39156;51.176;6.738;2023-06-26T13:55:02;29.55;;;27.60;;
53267;SDS011;39156;51.176;6.738;2023-06-26T13:57:29;30.05;;;28.35;;
53267;SDS011;39156;51.176;6.738;2023-06-26T13:59:55;31.27;;;29.38;;
53267;SDS011;39156;51.176;6.738;2023-06-26T14:02:21;29.65;;;27.95;;
53267;SDS011;39156;51.176;6.738;2023-06-26T14:04:47;28.88;;;27.27;;
53267;SDS011;39156;51.176;6.738;2023-06-26T14:07:13;29.20;;;27.60;;
53267;SDS011;39156;51.176;6.738;2023-06-26T14:09:39;29.85;;;28.15;;
53267;SDS011;39156;51.176;6.738;2023-06-26T14:12:05;30.13;;;28.42;;
53267;SDS011;39156;51.176;6.738;2023-06-26T14:14:32;29.45;;;27.65;;
53267;SDS011;39156;51.176;6.738;2023-06-26T14:16:58;29.42;;;27.83;;
53267;SDS011;39156;51.176;6.738;2023-06-26T14:19:24;31.25;;;29.40;;
53267;SDS011;39156;51.176;6.738;2023-06-26T14:21:54;29.83;;;28.23;;
53267;SDS011;39156;51.176;6.738;2023-06-26T14:24:24;30.08;;;28.30;;
53267;SDS011;39156;51.176;6.738;2023-06-26T14:29:16;29.38;;;27.58;;
53267;SDS011;39156;51.176;6.738;2023-06-26T14:31:42;32.40;;;30.05;;
53267;SDS011;39156;51.176;6.738;2023-06-26T14:34:08;29.42;;;27.60;;
53267;SDS011;39156;51.176;6.738;2023-06-26T14:36:34;28.52;;;26.92;;
53267;SDS011;39156;51.176;6.738;2023-06-26T14:39:02;31.25;;;28.55;;
53267;SDS011;39156;51.176;6.738;2023-06-26T14:41:29;30.13;;;28.42;;
53267;SDS011;39156;51.176;6.738;2023-06-26T14:44:05;29.58;;;27.63;;
53267;SDS011;39156;51.176;6.738;2023-06-26T14:46:34;30.77;;;28.45;;
53267;SDS011;39156;51.176;6.738;2023-06-26T14:49:01;28.95;;;27.35;;
53267;SDS011;39156;51.176;6.738;2023-06-26T14:51:27;31.05;;;29.27;;
53267;SDS011;39156;51.176;6.738;2023-06-26T14:53:56;30.58;;;28.58;;
53267;SDS011;39156;51.176;6.738;2023-06-26T14:56:21;29.85;;;28.08;;
53267;SDS011;39156;51.176;6.738;2023-06-26T14:58:47;29.85;;;27.88;;
53267;SDS011;39156;51.176;6.738;2023-06-26T15:01:13;30.63;;;28.92;;
53267;SDS011;39156;51.176;6.738;2023-06-26T15:03:43;30.15;;;28.45;;
53267;SDS011;39156;51.176;6.738;2023-06-26T15:06:08;30.20;;;28.48;;
53267;SDS011;39156;51.176;6.738;2023-06-26T15:08:34;29.45;;;27.85;;
53267;SDS011;39156;51.176;6.738;2023-06-26T15:11:00;30.35;;;28.73;;
53267;SDS011;39156;51.176;6.738;2023-06-26T15:13:27;30.88;;;29.17;;
53267;SDS011;39156;51.176;6.738;2023-06-26T15:15:53;31.48;;;29.70;;
53267;SDS011;39156;51.176;6.738;2023-06-26T15:18:19;28.88;;;27.38;;
53267;SDS011;39156;51.176;6.738;2023-06-26T15:20:45;29.83;;;28.23;;
53267;SDS011;39156;51.176;6.738;2023-06-26T15:23:23;29.13;;;27.52;;